createdAt,value
2017-02-24T00:00:17.885Z,978.06
2017-02-24T00:01:17.899Z,978.19
2017-02-24T00:02:17.912Z,978.1
2017-02-24T00:03:17.928Z,978.42
2017-02-24T00:04:17.943Z,978.08
2017-02-24T00:05:17.959Z,978.16
2017-02-24T00:06:17.976Z,978.22
2017-02-24T00:07:17.988Z,978.16
2017-02-24T00:08:18.003Z,978.3
2017-02-24T00:09:18.018Z,978.14
2017-02-24T00:10:18.031Z,978.34
2017-02-24T00:11:18.047Z,978.22
2017-02-24T00:12:18.061Z,978.36
2017-02-24T00:13:18.076Z,978.36
2017-02-24T00:14:18.090Z,978.36
2017-02-24T00:15:18.106Z,978.34
2017-02-24T00:16:18.121Z,978.35
2017-02-24T00:17:18.136Z,978.4
2017-02-24T00:18:18.151Z,978.32
2017-02-24T00:19:18.165Z,978.24
2017-02-24T00:20:18.181Z,978.35
2017-02-24T00:21:18.194Z,978.2
2017-02-24T00:22:18.210Z,978.16
2017-02-24T00:23:18.225Z,978.34
2017-02-24T00:24:18.238Z,978.53
2017-02-24T00:25:18.253Z,978.27
2017-02-24T00:26:18.268Z,978.29
2017-02-24T00:27:18.284Z,978.35
2017-02-24T00:28:18.347Z,978.35
2017-02-24T00:29:18.317Z,978.43
2017-02-24T00:30:18.328Z,978.36
2017-02-24T00:31:18.344Z,978.43
2017-02-24T00:32:18.357Z,978.42
2017-02-24T00:33:18.373Z,978.43
2017-02-24T00:34:18.388Z,978.46
2017-02-24T00:35:18.401Z,978.5
2017-02-24T00:36:18.417Z,978.52
2017-02-24T00:37:18.432Z,978.59
2017-02-24T00:38:18.447Z,978.57
2017-02-24T00:39:18.461Z,978.6
2017-02-24T00:40:18.475Z,978.64
2017-02-24T00:41:18.490Z,978.8
2017-02-24T00:42:18.504Z,978.68
2017-02-24T00:43:18.520Z,978.63
2017-02-24T00:44:18.535Z,978.64
2017-02-24T00:45:18.550Z,978.57
2017-02-24T00:46:18.563Z,978.76
2017-02-24T00:47:18.580Z,978.34
2017-02-24T00:48:18.593Z,978.51
2017-02-24T00:49:18.608Z,978.63
2017-02-24T00:50:18.620Z,978.72
2017-02-24T00:51:18.638Z,978.62
2017-02-24T00:52:18.651Z,978.6
2017-02-24T00:53:18.666Z,978.51
2017-02-24T00:54:18.680Z,978.63
2017-02-24T00:55:18.696Z,978.59
2017-02-24T00:56:18.710Z,978.58
2017-02-24T00:57:18.724Z,978.65
2017-02-24T00:58:18.740Z,978.61
2017-02-24T00:59:18.754Z,978.71
2017-02-24T01:00:18.770Z,978.62
2017-02-24T01:01:18.783Z,978.67
2017-02-24T01:02:18.799Z,978.68
2017-02-24T01:03:18.814Z,978.61
2017-02-24T01:04:18.828Z,978.66
2017-02-24T01:05:18.843Z,978.69
2017-02-24T01:06:18.858Z,978.63
2017-02-24T01:07:18.873Z,978.65
2017-02-24T01:08:18.887Z,978.66
2017-02-24T01:09:18.902Z,978.75
2017-02-24T01:10:18.917Z,978.71
2017-02-24T01:11:18.933Z,978.65
2017-02-24T01:12:18.946Z,978.71
2017-02-24T01:13:18.961Z,978.71
2017-02-24T01:14:18.976Z,978.8
2017-02-24T01:15:18.991Z,978.75
2017-02-24T01:16:19.005Z,978.9
2017-02-24T01:17:19.020Z,978.88
2017-02-24T01:18:19.036Z,978.91
2017-02-24T01:19:19.047Z,978.83
2017-02-24T01:20:19.064Z,978.98
2017-02-24T01:21:19.080Z,978.89
2017-02-24T01:22:19.094Z,979.06
2017-02-24T01:23:19.110Z,979.03
2017-02-24T01:24:19.125Z,979.14
2017-02-24T01:25:19.139Z,979.19
2017-02-24T01:26:19.153Z,979.14
2017-02-24T01:27:19.167Z,979.25
2017-02-24T01:28:19.182Z,979.15
2017-02-24T01:29:19.197Z,979.36
2017-02-24T01:30:19.211Z,979.3
2017-02-24T01:31:19.225Z,979.59
2017-02-24T01:32:19.325Z,979.35
2017-02-24T01:33:19.256Z,979.22
2017-02-24T01:34:19.270Z,979.33
2017-02-24T01:35:19.286Z,979.24
2017-02-24T01:36:19.301Z,979.19
2017-02-24T01:37:19.313Z,979.17
2017-02-24T01:38:19.328Z,979.14
2017-02-24T01:39:19.343Z,979.14
2017-02-24T01:40:19.358Z,979.25
2017-02-24T01:41:19.373Z,979.19
2017-02-24T01:42:19.387Z,978.83
2017-02-24T01:43:19.403Z,979.03
2017-02-24T01:44:19.419Z,978.93
2017-02-24T01:45:19.431Z,978.94
2017-02-24T01:46:19.447Z,978.95
2017-02-24T01:47:19.462Z,978.77
2017-02-24T01:48:19.477Z,979.02
2017-02-24T01:49:19.490Z,978.98
2017-02-24T01:50:19.505Z,978.96
2017-02-24T01:51:19.521Z,979
2017-02-24T01:52:19.535Z,978.91
2017-02-24T01:53:19.551Z,979.03
2017-02-24T01:54:19.668Z,979.09
2017-02-24T01:55:19.678Z,979
2017-02-24T01:56:19.687Z,979.09
2017-02-24T01:57:19.694Z,979.13
2017-02-24T01:58:19.842Z,979.17
2017-02-24T01:59:19.703Z,979.08
2017-02-24T02:00:19.654Z,979.15
2017-02-24T02:01:19.719Z,979.22
2017-02-24T02:02:19.791Z,979.2
2017-02-24T02:03:19.928Z,979.21
2017-02-24T02:04:19.797Z,979.23
2017-02-24T02:05:19.806Z,979.36
2017-02-24T02:06:19.813Z,979.18
2017-02-24T02:07:19.826Z,979.24
2017-02-24T02:08:20.022Z,979.28
2017-02-24T02:09:19.830Z,979.25
2017-02-24T02:10:19.840Z,979.26
2017-02-24T02:11:19.827Z,979.21
2017-02-24T02:12:19.828Z,979.36
2017-02-24T02:13:19.843Z,979.3
2017-02-24T02:14:19.857Z,979.28
2017-02-24T02:15:19.873Z,979.27
2017-02-24T02:16:19.887Z,979.19
2017-02-24T02:17:19.902Z,979.24
2017-02-24T02:18:19.916Z,979.32
2017-02-24T02:19:19.931Z,979.22
2017-02-24T02:20:19.947Z,979.22
2017-02-24T02:21:19.959Z,979.22
2017-02-24T02:22:19.975Z,979.28
2017-02-24T02:23:19.992Z,979.27
2017-02-24T02:24:20.004Z,979.3
2017-02-24T02:25:20.024Z,979.15
2017-02-24T02:26:20.034Z,979.21
2017-02-24T02:27:20.048Z,979.27
2017-02-24T02:28:20.063Z,979.23
2017-02-24T02:29:20.076Z,979.33
2017-02-24T02:30:20.092Z,979.36
2017-02-24T02:31:20.107Z,979.29
2017-02-24T02:32:20.121Z,979.37
2017-02-24T02:33:20.137Z,979.3
2017-02-24T02:34:20.151Z,979.24
2017-02-24T02:35:20.177Z,979.36
2017-02-24T02:36:20.180Z,979.31
2017-02-24T02:37:20.193Z,979.35
2017-02-24T02:38:20.211Z,979.33
2017-02-24T02:39:20.223Z,979.31
2017-02-24T02:40:20.239Z,979.33
2017-02-24T02:41:20.253Z,979.34
2017-02-24T02:42:20.268Z,979.31
2017-02-24T02:43:20.282Z,979.34
2017-02-24T02:44:20.297Z,979.44
2017-02-24T02:45:20.313Z,979.51
2017-02-24T02:46:20.326Z,979.54
2017-02-24T02:47:20.340Z,979.55
2017-02-24T02:48:20.355Z,979.46
2017-02-24T02:49:20.370Z,979.58
2017-02-24T02:50:20.382Z,979.58
2017-02-24T02:51:20.399Z,979.56
2017-02-24T02:52:20.413Z,979.71
2017-02-24T02:53:20.427Z,979.73
2017-02-24T02:54:20.441Z,979.53
2017-02-24T02:55:20.456Z,979.56
2017-02-24T02:56:20.471Z,979.64
2017-02-24T02:57:20.486Z,979.67
2017-02-24T02:58:20.500Z,979.56
2017-02-24T02:59:20.514Z,979.75
2017-02-24T03:00:20.529Z,980
2017-02-24T03:01:20.543Z,979.76
2017-02-24T03:02:20.559Z,979.79
2017-02-24T03:03:20.573Z,979.97
2017-02-24T03:04:20.587Z,979.99
2017-02-24T03:05:20.601Z,979.95
2017-02-24T03:06:20.615Z,979.8
2017-02-24T03:07:20.631Z,980.05
2017-02-24T03:08:20.645Z,980.1
2017-02-24T03:09:20.659Z,979.88
2017-02-24T03:10:20.674Z,980.06
2017-02-24T03:11:20.688Z,980.03
2017-02-24T03:12:20.702Z,980.01
2017-02-24T03:13:20.716Z,980
2017-02-24T03:14:20.732Z,980.26
2017-02-24T03:15:20.746Z,980.1
2017-02-24T03:16:20.760Z,980.12
2017-02-24T03:17:20.774Z,980.29
2017-02-24T03:18:20.791Z,980.12
2017-02-24T03:19:20.805Z,980.43
2017-02-24T03:20:20.817Z,980.18
2017-02-24T03:21:20.832Z,980.24
2017-02-24T03:22:20.847Z,980.29
2017-02-24T03:23:20.862Z,980.43
2017-02-24T03:24:20.877Z,980.45
2017-02-24T03:25:20.890Z,980.34
2017-02-24T03:26:20.906Z,980.44
2017-02-24T03:27:20.920Z,980.42
2017-02-24T03:28:20.932Z,980.41
2017-02-24T03:29:20.948Z,980.51
2017-02-24T03:30:20.962Z,980.66
2017-02-24T03:31:20.977Z,980.62
2017-02-24T03:32:20.991Z,980.6
2017-02-24T03:33:21.005Z,980.64
2017-02-24T03:34:21.018Z,980.62
2017-02-24T03:35:21.033Z,980.71
2017-02-24T03:36:21.048Z,980.59
2017-02-24T03:37:21.062Z,980.65
2017-02-24T03:38:21.077Z,980.61
2017-02-24T03:39:21.090Z,980.73
2017-02-24T03:40:21.107Z,980.67
2017-02-24T03:41:21.120Z,980.69
2017-02-24T03:42:21.134Z,980.76
2017-02-24T03:43:21.149Z,980.82
2017-02-24T03:44:21.162Z,980.81
2017-02-24T03:45:21.176Z,980.76
2017-02-24T03:46:21.191Z,980.8
2017-02-24T03:47:21.204Z,980.88
2017-02-24T03:48:21.218Z,980.96
2017-02-24T03:49:21.233Z,981.07
2017-02-24T03:50:21.245Z,981.07
2017-02-24T03:51:21.262Z,981.24
2017-02-24T03:52:21.276Z,981.09
2017-02-24T03:53:21.289Z,981.25
2017-02-24T03:54:21.303Z,981.3
2017-02-24T03:55:21.322Z,981.27
2017-02-24T03:56:21.332Z,981.23
2017-02-24T03:57:21.346Z,981.32
2017-02-24T03:58:21.360Z,981.38
2017-02-24T03:59:21.374Z,981.52
2017-02-24T04:00:21.392Z,981.6
2017-02-24T04:01:21.477Z,981.56
2017-02-24T04:02:21.476Z,981.73
2017-02-24T04:03:21.620Z,981.62
2017-02-24T04:04:21.492Z,981.85
2017-02-24T04:05:21.500Z,981.85
2017-02-24T04:06:21.510Z,981.93
2017-02-24T04:07:21.518Z,981.99
2017-02-24T04:08:21.794Z,982.02
2017-02-24T04:09:21.548Z,982.04
2017-02-24T04:10:21.534Z,982.11
2017-02-24T04:11:21.556Z,982.24
2017-02-24T04:12:21.560Z,982.21
2017-02-24T04:13:21.740Z,982.16
2017-02-24T04:14:21.617Z,982.4
2017-02-24T04:15:21.627Z,982.51
2017-02-24T04:16:21.636Z,982.58
2017-02-24T04:17:21.636Z,982.66
2017-02-24T04:18:21.782Z,982.75
2017-02-24T04:19:21.657Z,982.88
2017-02-24T04:20:21.760Z,982.93
2017-02-24T04:21:21.786Z,982.88
2017-02-24T04:22:21.779Z,983.06
2017-02-24T04:23:21.816Z,983.17
2017-02-24T04:24:21.786Z,983.19
2017-02-24T04:25:21.811Z,983.13
2017-02-24T04:26:21.756Z,983.21
2017-02-24T04:27:21.770Z,983.3
2017-02-24T04:28:21.835Z,983.44
2017-02-24T04:29:21.798Z,983.34
2017-02-24T04:30:21.812Z,983.49
2017-02-24T04:31:21.826Z,983.56
2017-02-24T04:32:21.841Z,983.43
2017-02-24T04:33:21.904Z,983.52
2017-02-24T04:34:21.869Z,983.65
2017-02-24T04:35:21.883Z,983.79
2017-02-24T04:36:21.896Z,983.69
2017-02-24T04:37:21.912Z,983.84
2017-02-24T04:38:21.927Z,983.89
2017-02-24T04:39:21.939Z,983.92
2017-02-24T04:40:21.953Z,983.9
2017-02-24T04:41:21.967Z,984
2017-02-24T04:42:21.983Z,984.11
2017-02-24T04:43:21.996Z,984.12
2017-02-24T04:44:22.012Z,984.22
2017-02-24T04:45:22.023Z,984.11
2017-02-24T04:46:22.038Z,984.33
2017-02-24T04:47:22.051Z,984.36
2017-02-24T04:48:22.066Z,984.21
2017-02-24T04:49:22.080Z,984.45
2017-02-24T04:50:22.094Z,984.4
2017-02-24T04:51:22.106Z,984.43
2017-02-24T04:52:22.121Z,984.49
2017-02-24T04:53:22.135Z,984.68
2017-02-24T04:54:22.148Z,984.61
2017-02-24T04:55:22.163Z,984.66
2017-02-24T04:56:22.176Z,984.8
2017-02-24T04:57:22.190Z,984.76
2017-02-24T04:58:22.202Z,984.87
2017-02-24T04:59:22.219Z,984.93
2017-02-24T05:00:22.231Z,984.92
2017-02-24T05:01:22.244Z,985.05
2017-02-24T05:02:22.260Z,984.95
2017-02-24T05:03:22.292Z,984.86
2017-02-24T05:04:22.286Z,985.02
2017-02-24T05:05:22.301Z,985.02
2017-02-24T05:06:22.313Z,985.01
2017-02-24T05:07:22.328Z,985.24
2017-02-24T05:08:22.441Z,985.21
2017-02-24T05:09:22.355Z,985.24
2017-02-24T05:10:22.368Z,985.28
2017-02-24T05:11:22.381Z,985.37
2017-02-24T05:12:22.395Z,985.34
2017-02-24T05:13:22.409Z,985.33
2017-02-24T05:14:22.421Z,985.28
2017-02-24T05:15:22.438Z,985.36
2017-02-24T05:16:22.450Z,985.54
2017-02-24T05:17:22.462Z,985.44
2017-02-24T05:18:22.476Z,985.51
2017-02-24T05:19:22.490Z,985.52
2017-02-24T05:20:22.503Z,985.53
2017-02-24T05:21:22.518Z,985.65
2017-02-24T05:22:22.530Z,985.73
2017-02-24T05:23:22.544Z,985.78
2017-02-24T05:24:22.558Z,985.88
2017-02-24T05:25:22.571Z,985.77
2017-02-24T05:26:22.585Z,985.8
2017-02-24T05:27:22.598Z,985.87
2017-02-24T05:28:22.611Z,985.82
2017-02-24T05:29:22.628Z,985.87
2017-02-24T05:30:22.639Z,985.88
2017-02-24T05:31:22.652Z,985.87
2017-02-24T05:32:22.664Z,986.02
2017-02-24T05:33:22.679Z,986.11
2017-02-24T05:34:22.693Z,986.19
2017-02-24T05:35:22.704Z,986.08
2017-02-24T05:36:22.719Z,986.3
2017-02-24T05:37:22.732Z,986.26
2017-02-24T05:38:22.745Z,986.47
2017-02-24T05:39:22.756Z,986.39
2017-02-24T05:40:22.770Z,986.38
2017-02-24T05:41:22.785Z,986.47
2017-02-24T05:42:22.796Z,986.4
2017-02-24T05:43:22.810Z,986.57
2017-02-24T05:44:22.824Z,986.6
2017-02-24T05:45:22.850Z,986.5
2017-02-24T05:46:22.852Z,986.55
2017-02-24T05:47:22.864Z,986.72
2017-02-24T05:48:22.879Z,986.69
2017-02-24T05:49:22.892Z,986.76
2017-02-24T05:50:22.905Z,986.84
2017-02-24T05:51:22.918Z,986.9
2017-02-24T05:52:22.932Z,986.82
2017-02-24T05:53:22.945Z,986.86
2017-02-24T05:54:22.959Z,986.88
2017-02-24T05:55:22.972Z,986.92
2017-02-24T05:56:22.985Z,986.88
2017-02-24T05:57:22.999Z,987.12
2017-02-24T05:58:23.012Z,987.07
2017-02-24T05:59:23.025Z,987.08
2017-02-24T06:00:23.038Z,986.99
2017-02-24T06:01:23.051Z,987.22
2017-02-24T06:02:23.065Z,987.25
2017-02-24T06:03:23.079Z,987.26
2017-02-24T06:04:23.090Z,987.3
2017-02-24T06:05:23.104Z,987.27
2017-02-24T06:06:23.118Z,987.28
2017-02-24T06:07:23.131Z,987.39
2017-02-24T06:08:23.145Z,987.36
2017-02-24T06:09:23.159Z,987.43
2017-02-24T06:10:23.170Z,987.43
2017-02-24T06:11:23.182Z,987.46
2017-02-24T06:12:23.198Z,987.48
2017-02-24T06:13:23.209Z,987.58
2017-02-24T06:14:23.222Z,987.65
2017-02-24T06:15:23.235Z,987.55
2017-02-24T06:16:23.248Z,987.69
2017-02-24T06:17:23.263Z,987.72
2017-02-24T06:18:23.274Z,987.8
2017-02-24T06:19:23.288Z,987.8
2017-02-24T06:20:23.300Z,987.91
2017-02-24T06:21:23.316Z,987.94
2017-02-24T06:22:23.327Z,987.89
2017-02-24T06:23:23.339Z,987.93
2017-02-24T06:24:23.352Z,987.94
2017-02-24T06:25:23.366Z,988.05
2017-02-24T06:26:23.379Z,988.14
2017-02-24T06:27:23.395Z,988.14
2017-02-24T06:28:23.404Z,988.2
2017-02-24T06:29:23.418Z,988.22
2017-02-24T06:30:23.432Z,988.25
2017-02-24T06:31:23.442Z,988.35
2017-02-24T06:32:23.456Z,988.3
2017-02-24T06:33:23.470Z,988.4
2017-02-24T06:34:23.482Z,988.43
2017-02-24T06:35:23.496Z,988.4
2017-02-24T06:36:23.510Z,988.52
2017-02-24T06:37:23.524Z,988.54
2017-02-24T06:38:23.534Z,988.51
2017-02-24T06:39:23.547Z,988.77
2017-02-24T06:40:23.560Z,988.65
2017-02-24T06:41:23.573Z,988.59
2017-02-24T06:42:23.587Z,988.74
2017-02-24T06:43:23.599Z,988.77
2017-02-24T06:44:23.613Z,988.77
2017-02-24T06:45:23.625Z,988.71
2017-02-24T06:46:23.640Z,988.86
2017-02-24T06:47:23.651Z,988.87
2017-02-24T06:48:23.664Z,988.9
2017-02-24T06:49:23.676Z,988.87
2017-02-24T06:50:23.690Z,988.91
2017-02-24T06:51:23.703Z,989.01
2017-02-24T06:52:23.716Z,989.09
2017-02-24T06:53:23.730Z,989.03
2017-02-24T06:54:23.743Z,989.12
2017-02-24T06:55:23.752Z,989.15
2017-02-24T06:56:23.768Z,989.32
2017-02-24T06:57:23.781Z,989.22
2017-02-24T06:58:23.793Z,989.27
2017-02-24T06:59:23.805Z,989.32
2017-02-24T07:00:23.819Z,989.35
2017-02-24T07:01:23.832Z,989.32
2017-02-24T07:02:23.844Z,989.37
2017-02-24T07:03:23.857Z,989.4
2017-02-24T07:04:23.870Z,989.5
2017-02-24T07:05:23.884Z,989.63
2017-02-24T07:06:23.897Z,989.43
2017-02-24T07:07:23.909Z,989.52
2017-02-24T07:08:23.922Z,989.56
2017-02-24T07:09:23.935Z,989.61
2017-02-24T07:10:24.005Z,989.71
2017-02-24T07:11:23.963Z,989.72
2017-02-24T07:12:23.979Z,989.59
2017-02-24T07:13:23.987Z,989.83
2017-02-24T07:14:23.998Z,989.87
2017-02-24T07:15:24.012Z,989.91
2017-02-24T07:16:24.026Z,989.86
2017-02-24T07:17:24.035Z,990.1
2017-02-24T07:18:24.054Z,990.09
2017-02-24T07:19:24.064Z,990.09
2017-02-24T07:20:24.076Z,990.11
2017-02-24T07:21:24.089Z,990.09
2017-02-24T07:22:24.108Z,990.14
2017-02-24T07:23:24.115Z,990.15
2017-02-24T07:24:24.128Z,990.18
2017-02-24T07:25:24.141Z,990.22
2017-02-24T07:26:24.165Z,990.23
2017-02-24T07:27:24.168Z,990.26
2017-02-24T07:28:24.179Z,990.2
2017-02-24T07:29:24.192Z,990.22
2017-02-24T07:30:24.204Z,990.39
2017-02-24T07:31:24.223Z,990.39
2017-02-24T07:32:24.239Z,990.5
2017-02-24T07:33:24.247Z,990.45
2017-02-24T07:34:24.256Z,990.35
2017-02-24T07:35:24.270Z,990.48
2017-02-24T07:36:24.281Z,990.55
2017-02-24T07:37:24.298Z,990.5
2017-02-24T07:38:24.312Z,990.54
2017-02-24T07:39:24.345Z,990.65
2017-02-24T07:40:24.334Z,990.58
2017-02-24T07:41:24.352Z,990.57
2017-02-24T07:42:24.367Z,990.54
2017-02-24T07:43:24.372Z,990.64
2017-02-24T07:44:24.392Z,990.58
2017-02-24T07:45:24.397Z,990.64
2017-02-24T07:46:24.411Z,990.62
2017-02-24T07:47:24.423Z,990.64
2017-02-24T07:48:24.437Z,990.65
2017-02-24T07:49:24.451Z,990.65
2017-02-24T07:50:24.463Z,990.69
2017-02-24T07:51:24.475Z,990.78
2017-02-24T07:52:24.488Z,990.71
2017-02-24T07:53:24.502Z,990.68
2017-02-24T07:54:24.547Z,990.77
2017-02-24T07:55:24.558Z,990.79
2017-02-24T07:56:24.539Z,990.87
2017-02-24T07:57:24.551Z,990.91
2017-02-24T07:58:24.566Z,991
2017-02-24T07:59:24.579Z,991.06
2017-02-24T08:00:24.591Z,991.07
2017-02-24T08:01:24.602Z,991.03
2017-02-24T08:02:24.620Z,991.14
2017-02-24T08:03:24.628Z,991.13
2017-02-24T08:04:24.641Z,991.08
2017-02-24T08:05:24.653Z,991.33
2017-02-24T08:06:24.671Z,991.27
2017-02-24T08:07:24.684Z,991.24
2017-02-24T08:08:24.695Z,991.34
2017-02-24T08:09:24.705Z,991.29
2017-02-24T08:10:24.718Z,991.39
2017-02-24T08:11:24.731Z,991.27
2017-02-24T08:12:24.744Z,991.3
2017-02-24T08:13:24.767Z,991.29
2017-02-24T08:14:24.770Z,991.41
2017-02-24T08:15:24.784Z,991.42
2017-02-24T08:16:24.795Z,991.42
2017-02-24T08:17:24.808Z,991.46
2017-02-24T08:18:24.828Z,991.51
2017-02-24T08:19:24.835Z,991.52
2017-02-24T08:20:24.847Z,991.56
2017-02-24T08:21:24.860Z,991.5
2017-02-24T08:22:24.873Z,991.56
2017-02-24T08:23:24.886Z,991.6
2017-02-24T08:24:24.901Z,991.62
2017-02-24T08:25:24.913Z,991.66
2017-02-24T08:26:24.927Z,991.63
2017-02-24T08:27:24.938Z,991.69
2017-02-24T08:28:24.952Z,991.77
2017-02-24T08:29:24.967Z,991.92
2017-02-24T08:30:24.977Z,991.77
2017-02-24T08:31:24.988Z,991.88
2017-02-24T08:32:25.002Z,991.86
2017-02-24T08:33:25.014Z,991.93
2017-02-24T08:34:25.028Z,991.98
2017-02-24T08:35:25.041Z,991.9
2017-02-24T08:36:25.057Z,991.99
2017-02-24T08:37:25.068Z,992.02
2017-02-24T08:38:25.168Z,992.02
2017-02-24T08:39:25.170Z,992.1
2017-02-24T08:40:25.179Z,992.01
2017-02-24T08:41:25.186Z,992.12
2017-02-24T08:42:25.198Z,992.14
2017-02-24T08:43:25.195Z,992.25
2017-02-24T08:44:25.203Z,992.18
2017-02-24T08:45:25.170Z,992.14
2017-02-24T08:46:25.185Z,992.21
2017-02-24T08:47:25.206Z,992.26
2017-02-24T08:48:25.209Z,992.31
2017-02-24T08:49:25.221Z,992.29
2017-02-24T08:50:25.235Z,992.3
2017-02-24T08:51:25.249Z,992.29
2017-02-24T08:52:25.260Z,992.4
2017-02-24T08:53:25.273Z,992.46
2017-02-24T08:54:25.287Z,992.49
2017-02-24T08:55:25.301Z,992.53
2017-02-24T08:56:25.313Z,992.36
2017-02-24T08:57:25.326Z,992.49
2017-02-24T08:58:25.339Z,992.55
2017-02-24T08:59:25.353Z,992.58
2017-02-24T09:00:25.366Z,992.59
2017-02-24T09:01:25.383Z,992.63
2017-02-24T09:02:25.393Z,992.71
2017-02-24T09:03:25.406Z,992.76
2017-02-24T09:04:25.423Z,992.72
2017-02-24T09:05:25.433Z,992.83
2017-02-24T09:06:25.446Z,992.79
2017-02-24T09:07:25.474Z,992.77
2017-02-24T09:08:25.473Z,992.83
2017-02-24T09:09:25.485Z,992.79
2017-02-24T09:10:25.498Z,992.82
2017-02-24T09:11:25.514Z,992.9
2017-02-24T09:12:25.525Z,992.95
2017-02-24T09:13:25.537Z,992.89
2017-02-24T09:14:25.553Z,993.02
2017-02-24T09:15:25.564Z,992.99
2017-02-24T09:16:25.578Z,993.05
2017-02-24T09:17:25.597Z,993.01
2017-02-24T09:18:25.602Z,993
2017-02-24T09:19:25.616Z,993.14
2017-02-24T09:20:25.636Z,993.17
2017-02-24T09:21:25.645Z,993.15
2017-02-24T09:22:25.661Z,993.16
2017-02-24T09:23:25.669Z,993.15
2017-02-24T09:24:25.682Z,993.17
2017-02-24T09:25:25.696Z,993.18
2017-02-24T09:26:25.723Z,993.25
2017-02-24T09:27:25.724Z,993.29
2017-02-24T09:28:25.735Z,993.4
2017-02-24T09:29:25.753Z,993.29
2017-02-24T09:30:25.762Z,993.35
2017-02-24T09:31:25.776Z,993.34
2017-02-24T09:32:25.788Z,993.4
2017-02-24T09:33:25.801Z,993.42
2017-02-24T09:34:25.815Z,993.48
2017-02-24T09:35:25.827Z,993.43
2017-02-24T09:36:25.841Z,993.44
2017-02-24T09:37:25.856Z,993.49
2017-02-24T09:38:25.867Z,993.5
2017-02-24T09:39:25.885Z,993.65
2017-02-24T09:40:25.894Z,993.58
2017-02-24T09:41:25.909Z,993.53
2017-02-24T09:42:25.921Z,993.56
2017-02-24T09:43:26.058Z,993.57
2017-02-24T09:44:25.947Z,993.58
2017-02-24T09:45:25.982Z,993.67
2017-02-24T09:46:25.978Z,993.64
2017-02-24T09:47:25.990Z,993.58
2017-02-24T09:48:26.001Z,993.63
2017-02-24T09:49:26.018Z,993.73
2017-02-24T09:50:26.028Z,993.72
2017-02-24T09:51:26.042Z,993.7
2017-02-24T09:52:26.157Z,993.72
2017-02-24T09:53:26.068Z,993.77
2017-02-24T09:54:26.081Z,993.7
2017-02-24T09:55:26.095Z,993.81
2017-02-24T09:56:26.112Z,993.82
2017-02-24T09:57:26.122Z,993.88
2017-02-24T09:58:26.136Z,993.85
2017-02-24T09:59:26.151Z,993.8
2017-02-24T10:00:26.164Z,993.87
2017-02-24T10:01:26.178Z,993.93
2017-02-24T10:02:26.190Z,993.91
2017-02-24T10:03:26.205Z,993.93
2017-02-24T10:04:26.216Z,994.01
2017-02-24T10:05:26.232Z,994.03
2017-02-24T10:06:26.244Z,994.06
2017-02-24T10:07:26.258Z,994.06
2017-02-24T10:08:26.273Z,994.08
2017-02-24T10:09:26.286Z,994.1
2017-02-24T10:10:26.299Z,994.18
2017-02-24T10:11:26.314Z,994.19
2017-02-24T10:12:26.327Z,994.29
2017-02-24T10:13:26.341Z,994.28
2017-02-24T10:14:26.356Z,994.2
2017-02-24T10:15:26.369Z,994.34
2017-02-24T10:16:26.383Z,994.43
2017-02-24T10:17:26.396Z,994.44
2017-02-24T10:18:26.412Z,994.56
2017-02-24T10:19:26.424Z,994.46
2017-02-24T10:20:26.436Z,994.48
2017-02-24T10:21:26.452Z,994.56
2017-02-24T10:22:26.466Z,994.57
2017-02-24T10:23:26.478Z,994.56
2017-02-24T10:24:26.697Z,994.61
2017-02-24T10:25:26.507Z,994.6
2017-02-24T10:26:26.522Z,994.69
2017-02-24T10:27:26.533Z,994.73
2017-02-24T10:28:26.547Z,994.7
2017-02-24T10:29:26.562Z,994.73
2017-02-24T10:30:26.576Z,994.67
2017-02-24T10:31:26.592Z,994.71
2017-02-24T10:32:26.605Z,994.66
2017-02-24T10:33:26.617Z,994.68
2017-02-24T10:34:26.633Z,994.73
2017-02-24T10:35:26.647Z,994.72
2017-02-24T10:36:26.659Z,994.68
2017-02-24T10:37:26.674Z,994.67
2017-02-24T10:38:26.687Z,994.71
2017-02-24T10:39:26.701Z,994.68
2017-02-24T10:40:26.715Z,994.71
2017-02-24T10:41:26.729Z,994.72
2017-02-24T10:42:26.743Z,994.69
2017-02-24T10:43:26.756Z,994.72
2017-02-24T10:44:26.947Z,994.72
2017-02-24T10:45:26.784Z,994.73
2017-02-24T10:46:26.799Z,994.69
2017-02-24T10:47:26.812Z,994.74
2017-02-24T10:48:26.827Z,994.74
2017-02-24T10:49:26.839Z,994.72
2017-02-24T10:50:26.854Z,994.79
2017-02-24T10:51:26.870Z,994.76
2017-02-24T10:52:26.883Z,994.78
2017-02-24T10:53:26.895Z,994.7
2017-02-24T10:54:26.910Z,994.69
2017-02-24T10:55:26.924Z,994.79
2017-02-24T10:56:26.941Z,994.75
2017-02-24T10:57:26.950Z,994.76
2017-02-24T10:58:26.967Z,994.72
2017-02-24T10:59:26.981Z,994.8
2017-02-24T11:00:26.994Z,994.81
2017-02-24T11:01:27.009Z,994.81
2017-02-24T11:02:27.022Z,994.82
2017-02-24T11:03:27.036Z,994.88
2017-02-24T11:04:27.051Z,994.7
2017-02-24T11:05:27.064Z,994.81
2017-02-24T11:06:27.079Z,994.79
2017-02-24T11:07:27.092Z,994.77
2017-02-24T11:08:27.106Z,994.8
2017-02-24T11:09:27.121Z,994.8
2017-02-24T11:10:27.135Z,994.85
2017-02-24T11:11:27.148Z,994.83
2017-02-24T11:12:27.238Z,994.89
2017-02-24T11:13:27.177Z,994.89
2017-02-24T11:14:27.291Z,994.89
2017-02-24T11:15:27.261Z,994.95
2017-02-24T11:16:27.259Z,994.94
2017-02-24T11:17:27.232Z,994.95
2017-02-24T11:18:27.246Z,995
2017-02-24T11:19:27.461Z,995.05
2017-02-24T11:20:27.276Z,995.05
2017-02-24T11:21:27.290Z,995.11
2017-02-24T11:22:27.302Z,995.15
2017-02-24T11:23:27.338Z,995.18
2017-02-24T11:24:27.330Z,995.26
2017-02-24T11:25:27.344Z,995.29
2017-02-24T11:26:27.360Z,995.33
2017-02-24T11:27:27.373Z,995.39
2017-02-24T11:28:27.387Z,995.53
2017-02-24T11:29:27.404Z,995.42
2017-02-24T11:30:27.415Z,995.42
2017-02-24T11:31:27.430Z,995.4
2017-02-24T11:32:27.444Z,995.41
2017-02-24T11:33:27.457Z,995.39
2017-02-24T11:34:27.470Z,995.42
2017-02-24T11:35:27.485Z,995.47
2017-02-24T11:36:27.499Z,995.42
2017-02-24T11:37:27.622Z,995.45
2017-02-24T11:38:27.527Z,995.46
2017-02-24T11:39:27.540Z,995.46
2017-02-24T11:40:27.554Z,995.47
2017-02-24T11:41:27.568Z,995.46
2017-02-24T11:42:27.581Z,995.53
2017-02-24T11:43:27.596Z,995.56
2017-02-24T11:44:27.613Z,995.59
2017-02-24T11:45:27.623Z,995.6
2017-02-24T11:46:27.637Z,995.63
2017-02-24T11:47:27.651Z,995.72
2017-02-24T11:48:27.748Z,995.69
2017-02-24T11:49:27.679Z,995.72
2017-02-24T11:50:27.695Z,995.71
2017-02-24T11:51:27.708Z,995.75
2017-02-24T11:52:27.720Z,995.79
2017-02-24T11:53:27.735Z,995.73
2017-02-24T11:54:27.748Z,995.73
2017-02-24T11:55:27.761Z,995.83
2017-02-24T11:56:27.777Z,995.83
2017-02-24T11:57:27.791Z,995.84
2017-02-24T11:58:27.804Z,995.83
2017-02-24T11:59:27.819Z,995.84
2017-02-24T12:00:27.832Z,995.83
2017-02-24T12:01:27.847Z,995.87
2017-02-24T12:02:27.860Z,995.92
2017-02-24T12:03:27.875Z,995.97
2017-02-24T12:04:27.890Z,995.92
2017-02-24T12:05:27.910Z,995.89
2017-02-24T12:06:27.919Z,995.89
2017-02-24T12:07:27.933Z,995.93
2017-02-24T12:08:27.946Z,995.89
2017-02-24T12:09:27.960Z,995.9
2017-02-24T12:10:27.974Z,995.97
2017-02-24T12:11:27.988Z,996.01
2017-02-24T12:12:28.003Z,995.97
2017-02-24T12:13:28.016Z,996.07
2017-02-24T12:14:28.032Z,996.01
2017-02-24T12:15:28.045Z,996.06
2017-02-24T12:16:28.061Z,996.15
2017-02-24T12:17:28.075Z,996.16
2017-02-24T12:18:28.088Z,996.16
2017-02-24T12:19:28.102Z,996.1
2017-02-24T12:20:28.116Z,996.17
2017-02-24T12:21:28.130Z,996.22
2017-02-24T12:22:28.146Z,996.18
2017-02-24T12:23:28.160Z,996.21
2017-02-24T12:24:28.174Z,996.29
2017-02-24T12:25:28.187Z,996.29
2017-02-24T12:26:28.202Z,996.25
2017-02-24T12:27:28.216Z,996.26
2017-02-24T12:28:28.230Z,996.27
2017-02-24T12:29:28.244Z,996.34
2017-02-24T12:30:28.258Z,996.38
2017-02-24T12:31:28.270Z,996.39